LGSR

Details ICAO LGSR (JTR)
Name SANTORINI
Region Greece
Timezone Europe/Athens (UTC+3.0)
Plans Departing 168
Arriving 265
Stats Elevation 127 ft / 39 m (AMSL)
Location 36.398949° 25.478507°
Runways 2
Magnetic Variation 4.554° E
Sunrise 2018-05-21 03:08:42 UTC / 2018-05-21 06:08:42 Local
Sunset 2018-05-21 17:23:29 UTC / 2018-05-21 20:23:29 Local
Advertisement - Login to hide

Runways

ID Width Length Bearing (true) Bearing (mag) Surface Threshold Offset Overrun Length
16L 98 ft / 30 m 6,978 ft / 2,127 m 159.53° 154.98° Asphalt 0 ft / 0 m 909 ft / 277 m
16R 98 ft / 30 m 6,969 ft / 2,124 m 159.56° 155.01° Asphalt 0 ft / 0 m 420 ft / 128 m
34L 98 ft / 30 m 6,969 ft / 2,124 m 339.56° 335.01° Asphalt 0 ft / 0 m 0 ft / 0 m
34R 98 ft / 30 m 6,978 ft / 2,127 m 339.54° 334.99° Asphalt 0 ft / 0 m 0 ft / 0 m

Map

Weather


0- 5 10 15 20 25 30 35+ Temperature / ° C

Clouds and Precipitation
Forecast for 2018-05-21 18:00 UTC. Updated 2 hours ago

Ground ~20,000 ft ~40,000 ft Winds

METAR

LGSR 211850Z 33006KT 9999 FEW015 21/18 Q1010 RMK SCT100 BKN180 BLU

TAF

TAF LGSR 211700Z 2118/2218 02012KT 9999 FEW008 SCT020 BECMG 2122/2124 32012KT

Frequencies

Tower 118.05 MHz TWR
Approach 118.05 MHz APP
Tower 122.10 MHz TWR
Approach 122.10 MHz APP
Warning: Do not use this data for real-world aviation or navigation. No guarantee of current accuracy is given.